sensor_id;sensor_type;location;lat;lon;timestamp;P1;durP1;ratioP1;P2;durP2;ratioP2
64688;SDS011;62504;46.070;14.492;2023-07-13T00:01:37;12.88;;;7.13;;
64688;SDS011;62504;46.070;14.492;2023-07-13T00:04:03;14.63;;;7.18;;
64688;SDS011;62504;46.070;14.492;2023-07-13T00:06:29;13.25;;;6.70;;
64688;SDS011;62504;46.070;14.492;2023-07-13T00:08:57;15.32;;;6.30;;
64688;SDS011;62504;46.070;14.492;2023-07-13T00:11:24;14.90;;;6.53;;
64688;SDS011;62504;46.070;14.492;2023-07-13T00:13:49;13.50;;;6.50;;
64688;SDS011;62504;46.070;14.492;2023-07-13T00:16:15;17.60;;;6.32;;
64688;SDS011;62504;46.070;14.492;2023-07-13T00:18:41;12.82;;;6.05;;
64688;SDS011;62504;46.070;14.492;2023-07-13T00:21:06;13.15;;;6.75;;
64688;SDS011;62504;46.070;14.492;2023-07-13T00:23:33;14.38;;;7.18;;
64688;SDS011;62504;46.070;14.492;2023-07-13T00:26:02;18.77;;;7.35;;
64688;SDS011;62504;46.070;14.492;2023-07-13T00:28:28;18.98;;;7.05;;
64688;SDS011;62504;46.070;14.492;2023-07-13T00:30:54;16.10;;;6.72;;
64688;SDS011;62504;46.070;14.492;2023-07-13T00:33:20;16.88;;;7.30;;
64688;SDS011;62504;46.070;14.492;2023-07-13T00:35:46;14.25;;;7.70;;
64688;SDS011;62504;46.070;14.492;2023-07-13T00:38:12;15.05;;;7.82;;
64688;SDS011;62504;46.070;14.492;2023-07-13T00:40:38;16.35;;;8.20;;
64688;SDS011;62504;46.070;14.492;2023-07-13T00:43:08;13.95;;;7.80;;
64688;SDS011;62504;46.070;14.492;2023-07-13T00:48:10;15.68;;;8.05;;
64688;SDS011;62504;46.070;14.492;2023-07-13T00:50:40;19.75;;;7.95;;
64688;SDS011;62504;46.070;14.492;2023-07-13T00:53:08;12.93;;;7.90;;
64688;SDS011;62504;46.070;14.492;2023-07-13T00:55:34;19.42;;;7.13;;
64688;SDS011;62504;46.070;14.492;2023-07-13T00:58:01;16.08;;;7.60;;
64688;SDS011;62504;46.070;14.492;2023-07-13T01:00:27;14.38;;;7.20;;
64688;SDS011;62504;46.070;14.492;2023-07-13T01:02:54;15.70;;;7.50;;
64688;SDS011;62504;46.070;14.492;2023-07-13T01:05:21;14.02;;;6.80;;
64688;SDS011;62504;46.070;14.492;2023-07-13T01:07:48;13.05;;;7.75;;
64688;SDS011;62504;46.070;14.492;2023-07-13T01:10:21;12.60;;;7.45;;
64688;SDS011;62504;46.070;14.492;2023-07-13T01:12:47;11.73;;;6.80;;
64688;SDS011;62504;46.070;14.492;2023-07-13T01:18:21;11.75;;;4.15;;
64688;SDS011;62504;46.070;14.492;2023-07-13T01:21:10;13.23;;;4.00;;
64688;SDS011;62504;46.070;14.492;2023-07-13T01:23:35;11.93;;;3.58;;
64688;SDS011;62504;46.070;14.492;2023-07-13T01:26:01;10.02;;;2.28;;
64688;SDS011;62504;46.070;14.492;2023-07-13T01:28:27;6.70;;;2.10;;
64688;SDS011;62504;46.070;14.492;2023-07-13T01:30:54;8.25;;;1.65;;
64688;SDS011;62504;46.070;14.492;2023-07-13T01:33:21;7.85;;;2.40;;
64688;SDS011;62504;46.070;14.492;2023-07-13T01:35:47;7.20;;;2.10;;
64688;SDS011;62504;46.070;14.492;2023-07-13T01:38:14;9.60;;;2.63;;
64688;SDS011;62504;46.070;14.492;2023-07-13T01:40:41;8.50;;;2.65;;
64688;SDS011;62504;46.070;14.492;2023-07-13T01:43:07;8.57;;;2.42;;
64688;SDS011;62504;46.070;14.492;2023-07-13T01:45:33;5.82;;;2.20;;
64688;SDS011;62504;46.070;14.492;2023-07-13T01:47:59;7.07;;;2.13;;
64688;SDS011;62504;46.070;14.492;2023-07-13T01:50:24;5.65;;;1.80;;
64688;SDS011;62504;46.070;14.492;2023-07-13T01:52:51;4.35;;;1.70;;
64688;SDS011;62504;46.070;14.492;2023-07-13T01:55:17;5.53;;;1.98;;
64688;SDS011;62504;46.070;14.492;2023-07-13T01:57:43;4.88;;;2.13;;
64688;SDS011;62504;46.070;14.492;2023-07-13T02:00:09;4.80;;;1.70;;
64688;SDS011;62504;46.070;14.492;2023-07-13T02:02:35;7.90;;;1.80;;
64688;SDS011;62504;46.070;14.492;2023-07-13T02:05:01;5.30;;;1.58;;
64688;SDS011;62504;46.070;14.492;2023-07-13T02:07:27;7.47;;;2.25;;
64688;SDS011;62504;46.070;14.492;2023-07-13T02:09:52;5.57;;;2.03;;
64688;SDS011;62504;46.070;14.492;2023-07-13T02:12:18;4.25;;;1.85;;
64688;SDS011;62504;46.070;14.492;2023-07-13T02:14:44;11.50;;;2.85;;
64688;SDS011;62504;46.070;14.492;2023-07-13T02:17:10;7.85;;;2.67;;
64688;SDS011;62504;46.070;14.492;2023-07-13T02:19:36;9.23;;;3.00;;
64688;SDS011;62504;46.070;14.492;2023-07-13T02:22:02;7.22;;;2.40;;
64688;SDS011;62504;46.070;14.492;2023-07-13T02:24:28;6.88;;;2.63;;
64688;SDS011;62504;46.070;14.492;2023-07-13T02:26:53;8.60;;;2.72;;
64688;SDS011;62504;46.070;14.492;2023-07-13T02:29:19;11.80;;;3.47;;
64688;SDS011;62504;46.070;14.492;2023-07-13T02:31:45;12.65;;;3.70;;
64688;SDS011;62504;46.070;14.492;2023-07-13T02:34:10;7.80;;;2.80;;
64688;SDS011;62504;46.070;14.492;2023-07-13T02:36:36;11.30;;;3.38;;
64688;SDS011;62504;46.070;14.492;2023-07-13T02:39:02;10.63;;;3.25;;
64688;SDS011;62504;46.070;14.492;2023-07-13T02:41:29;8.10;;;2.72;;
64688;SDS011;62504;46.070;14.492;2023-07-13T02:43:55;7.65;;;2.33;;
64688;SDS011;62504;46.070;14.492;2023-07-13T02:46:28;7.20;;;2.63;;
64688;SDS011;62504;46.070;14.492;2023-07-13T02:48:54;11.20;;;2.70;;
64688;SDS011;62504;46.070;14.492;2023-07-13T02:51:19;5.93;;;2.35;;
64688;SDS011;62504;46.070;14.492;2023-07-13T02:53:45;11.68;;;2.97;;
64688;SDS011;62504;46.070;14.492;2023-07-13T02:56:11;9.77;;;2.83;;
64688;SDS011;62504;46.070;14.492;2023-07-13T02:58:37;7.68;;;3.10;;
64688;SDS011;62504;46.070;14.492;2023-07-13T03:01:07;7.68;;;3.38;;
64688;SDS011;62504;46.070;14.492;2023-07-13T03:03:35;7.00;;;3.05;;
64688;SDS011;62504;46.070;14.492;2023-07-13T03:06:01;8.15;;;3.03;;
64688;SDS011;62504;46.070;14.492;2023-07-13T03:08:28;7.40;;;2.77;;
64688;SDS011;62504;46.070;14.492;2023-07-13T03:11:05;5.57;;;2.50;;
64688;SDS011;62504;46.070;14.492;2023-07-13T03:13:33;7.93;;;2.43;;
64688;SDS011;62504;46.070;14.492;2023-07-13T03:15:59;6.23;;;2.23;;
64688;SDS011;62504;46.070;14.492;2023-07-13T03:18:26;8.30;;;2.60;;
64688;SDS011;62504;46.070;14.492;2023-07-13T03:20:52;6.67;;;2.50;;
64688;SDS011;62504;46.070;14.492;2023-07-13T03:23:18;10.27;;;2.90;;
64688;SDS011;62504;46.070;14.492;2023-07-13T03:25:44;7.40;;;2.67;;
64688;SDS011;62504;46.070;14.492;2023-07-13T03:28:11;6.47;;;2.60;;
64688;SDS011;62504;46.070;14.492;2023-07-13T03:30:37;12.70;;;3.00;;
64688;SDS011;62504;46.070;14.492;2023-07-13T03:33:03;8.93;;;2.40;;
64688;SDS011;62504;46.070;14.492;2023-07-13T03:35:28;7.10;;;2.60;;
64688;SDS011;62504;46.070;14.492;2023-07-13T03:37:54;6.00;;;2.20;;
64688;SDS011;62504;46.070;14.492;2023-07-13T03:40:20;13.57;;;5.90;;
64688;SDS011;62504;46.070;14.492;2023-07-13T03:42:46;9.87;;;3.83;;
64688;SDS011;62504;46.070;14.492;2023-07-13T03:45:11;9.10;;;3.63;;
64688;SDS011;62504;46.070;14.492;2023-07-13T03:47:37;7.53;;;2.87;;
64688;SDS011;62504;46.070;14.492;2023-07-13T03:50:03;10.47;;;2.53;;
64688;SDS011;62504;46.070;14.492;2023-07-13T03:52:29;8.27;;;2.63;;
64688;SDS011;62504;46.070;14.492;2023-07-13T03:54:54;4.90;;;2.50;;
64688;SDS011;62504;46.070;14.492;2023-07-13T03:57:20;9.73;;;3.03;;
64688;SDS011;62504;46.070;14.492;2023-07-13T03:59:45;7.93;;;2.87;;
64688;SDS011;62504;46.070;14.492;2023-07-13T04:02:11;5.30;;;2.80;;
64688;SDS011;62504;46.070;14.492;2023-07-13T04:04:37;7.30;;;2.70;;
64688;SDS011;62504;46.070;14.492;2023-07-13T04:07:05;6.73;;;2.80;;
64688;SDS011;62504;46.070;14.492;2023-07-13T04:09:32;5.70;;;2.60;;
64688;SDS011;62504;46.070;14.492;2023-07-13T04:11:57;7.83;;;3.07;;
64688;SDS011;62504;46.070;14.492;2023-07-13T04:14:23;6.37;;;2.83;;
64688;SDS011;62504;46.070;14.492;2023-07-13T04:16:49;5.87;;;3.10;;
64688;SDS011;62504;46.070;14.492;2023-07-13T04:19:14;6.00;;;3.10;;
64688;SDS011;62504;46.070;14.492;2023-07-13T04:21:40;6.70;;;2.90;;
64688;SDS011;62504;46.070;14.492;2023-07-13T04:24:05;9.20;;;2.95;;
64688;SDS011;62504;46.070;14.492;2023-07-13T04:26:32;8.10;;;3.22;;
64688;SDS011;62504;46.070;14.492;2023-07-13T04:29:01;8.73;;;3.00;;
64688;SDS011;62504;46.070;14.492;2023-07-13T04:31:29;7.63;;;3.20;;
64688;SDS011;62504;46.070;14.492;2023-07-13T04:33:55;6.80;;;3.22;;
64688;SDS011;62504;46.070;14.492;2023-07-13T04:36:21;10.32;;;3.40;;
64688;SDS011;62504;46.070;14.492;2023-07-13T04:38:46;8.65;;;3.33;;
64688;SDS011;62504;46.070;14.492;2023-07-13T04:41:12;7.45;;;3.08;;
64688;SDS011;62504;46.070;14.492;2023-07-13T04:43:39;8.25;;;3.38;;
64688;SDS011;62504;46.070;14.492;2023-07-13T04:46:08;7.57;;;3.40;;
64688;SDS011;62504;46.070;14.492;2023-07-13T04:48:37;9.27;;;3.45;;
64688;SDS011;62504;46.070;14.492;2023-07-13T04:51:03;9.25;;;3.83;;
64688;SDS011;62504;46.070;14.492;2023-07-13T04:53:30;6.35;;;3.58;;
64688;SDS011;62504;46.070;14.492;2023-07-13T04:55:57;12.40;;;3.92;;
64688;SDS011;62504;46.070;14.492;2023-07-13T04:58:23;9.90;;;4.00;;
64688;SDS011;62504;46.070;14.492;2023-07-13T05:00:49;6.50;;;3.70;;
64688;SDS011;62504;46.070;14.492;2023-07-13T05:03:14;6.20;;;3.63;;
64688;SDS011;62504;46.070;14.492;2023-07-13T05:05:40;6.82;;;3.20;;
64688;SDS011;62504;46.070;14.492;2023-07-13T05:08:06;7.78;;;3.72;;
64688;SDS011;62504;46.070;14.492;2023-07-13T05:10:32;7.22;;;3.10;;
64688;SDS011;62504;46.070;14.492;2023-07-13T05:12:58;6.25;;;3.55;;
64688;SDS011;62504;46.070;14.492;2023-07-13T05:15:24;5.80;;;3.40;;
64688;SDS011;62504;46.070;14.492;2023-07-13T05:17:50;10.82;;;3.60;;
64688;SDS011;62504;46.070;14.492;2023-07-13T05:20:17;8.75;;;3.70;;
64688;SDS011;62504;46.070;14.492;2023-07-13T05:22:43;7.13;;;3.40;;
64688;SDS011;62504;46.070;14.492;2023-07-13T05:25:11;5.30;;;3.40;;
64688;SDS011;62504;46.070;14.492;2023-07-13T05:27:38;6.38;;;3.63;;
64688;SDS011;62504;46.070;14.492;2023-07-13T05:30:03;10.93;;;3.75;;
64688;SDS011;62504;46.070;14.492;2023-07-13T05:32:30;9.35;;;3.70;;
64688;SDS011;62504;46.070;14.492;2023-07-13T05:34:55;8.15;;;3.83;;
64688;SDS011;62504;46.070;14.492;2023-07-13T05:37:21;7.45;;;3.50;;
64688;SDS011;62504;46.070;14.492;2023-07-13T05:39:47;7.50;;;4.00;;
64688;SDS011;62504;46.070;14.492;2023-07-13T05:42:12;9.80;;;3.97;;
64688;SDS011;62504;46.070;14.492;2023-07-13T05:44:38;9.93;;;4.68;;
64688;SDS011;62504;46.070;14.492;2023-07-13T05:47:04;9.32;;;4.53;;
64688;SDS011;62504;46.070;14.492;2023-07-13T05:49:30;9.82;;;4.10;;
64688;SDS011;62504;46.070;14.492;2023-07-13T05:51:56;9.00;;;4.20;;
64688;SDS011;62504;46.070;14.492;2023-07-13T05:54:22;8.15;;;3.60;;
64688;SDS011;62504;46.070;14.492;2023-07-13T05:56:47;8.05;;;3.80;;
64688;SDS011;62504;46.070;14.492;2023-07-13T05:59:13;6.13;;;3.45;;
64688;SDS011;62504;46.070;14.492;2023-07-13T06:01:38;10.10;;;3.53;;
64688;SDS011;62504;46.070;14.492;2023-07-13T06:04:04;10.40;;;3.55;;
64688;SDS011;62504;46.070;14.492;2023-07-13T06:06:30;7.57;;;2.92;;
64688;SDS011;62504;46.070;14.492;2023-07-13T06:08:56;8.65;;;3.90;;
64688;SDS011;62504;46.070;14.492;2023-07-13T06:11:23;7.88;;;3.80;;
64688;SDS011;62504;46.070;14.492;2023-07-13T06:13:50;10.95;;;3.95;;
64688;SDS011;62504;46.070;14.492;2023-07-13T06:16:17;6.70;;;3.08;;
64688;SDS011;62504;46.070;14.492;2023-07-13T06:18:42;8.85;;;3.58;;
64688;SDS011;62504;46.070;14.492;2023-07-13T06:21:09;14.80;;;5.07;;
64688;SDS011;62504;46.070;14.492;2023-07-13T06:23:37;9.95;;;3.78;;
64688;SDS011;62504;46.070;14.492;2023-07-13T06:26:03;9.90;;;4.05;;
64688;SDS011;62504;46.070;14.492;2023-07-13T06:28:30;11.15;;;4.68;;
64688;SDS011;62504;46.070;14.492;2023-07-13T06:30:57;8.23;;;3.70;;
64688;SDS011;62504;46.070;14.492;2023-07-13T06:33:23;8.65;;;3.65;;
64688;SDS011;62504;46.070;14.492;2023-07-13T06:35:49;8.63;;;3.83;;
64688;SDS011;62504;46.070;14.492;2023-07-13T06:38:15;9.38;;;3.92;;
64688;SDS011;62504;46.070;14.492;2023-07-13T06:40:40;8.73;;;3.78;;
64688;SDS011;62504;46.070;14.492;2023-07-13T06:43:06;7.80;;;3.85;;
64688;SDS011;62504;46.070;14.492;2023-07-13T06:45:35;9.52;;;4.32;;
64688;SDS011;62504;46.070;14.492;2023-07-13T06:48:05;7.70;;;4.10;;
64688;SDS011;62504;46.070;14.492;2023-07-13T06:50:31;10.88;;;3.95;;
64688;SDS011;62504;46.070;14.492;2023-07-13T06:52:56;9.15;;;4.32;;
64688;SDS011;62504;46.070;14.492;2023-07-13T06:55:24;9.27;;;4.20;;
64688;SDS011;62504;46.070;14.492;2023-07-13T06:57:50;8.05;;;4.15;;
64688;SDS011;62504;46.070;14.492;2023-07-13T07:00:16;8.07;;;3.75;;
64688;SDS011;62504;46.070;14.492;2023-07-13T07:02:42;9.23;;;4.13;;
64688;SDS011;62504;46.070;14.492;2023-07-13T07:05:07;9.20;;;3.97;;
64688;SDS011;62504;46.070;14.492;2023-07-13T07:07:33;8.88;;;4.57;;
64688;SDS011;62504;46.070;14.492;2023-07-13T07:09:59;9.38;;;4.00;;
64688;SDS011;62504;46.070;14.492;2023-07-13T07:12:24;8.73;;;4.38;;
64688;SDS011;62504;46.070;14.492;2023-07-13T07:14:50;7.53;;;3.80;;
64688;SDS011;62504;46.070;14.492;2023-07-13T07:17:15;6.20;;;4.13;;
64688;SDS011;62504;46.070;14.492;2023-07-13T07:19:41;10.82;;;3.95;;
64688;SDS011;62504;46.070;14.492;2023-07-13T07:22:07;8.52;;;4.00;;
64688;SDS011;62504;46.070;14.492;2023-07-13T07:24:32;8.35;;;4.28;;
64688;SDS011;62504;46.070;14.492;2023-07-13T07:26:58;10.48;;;3.80;;
64688;SDS011;62504;46.070;14.492;2023-07-13T07:29:24;11.95;;;3.50;;
64688;SDS011;62504;46.070;14.492;2023-07-13T07:31:51;8.45;;;3.70;;
64688;SDS011;62504;46.070;14.492;2023-07-13T07:34:17;10.52;;;4.03;;
64688;SDS011;62504;46.070;14.492;2023-07-13T07:36:43;10.63;;;4.68;;
64688;SDS011;62504;46.070;14.492;2023-07-13T07:39:08;7.32;;;4.05;;
64688;SDS011;62504;46.070;14.492;2023-07-13T07:41:34;7.53;;;3.67;;
64688;SDS011;62504;46.070;14.492;2023-07-13T07:43:59;9.63;;;4.05;;
64688;SDS011;62504;46.070;14.492;2023-07-13T07:46:25;7.85;;;3.90;;
64688;SDS011;62504;46.070;14.492;2023-07-13T07:48:51;9.00;;;4.13;;
64688;SDS011;62504;46.070;14.492;2023-07-13T07:51:16;8.10;;;4.28;;
64688;SDS011;62504;46.070;14.492;2023-07-13T07:53:42;9.38;;;3.88;;
64688;SDS011;62504;46.070;14.492;2023-07-13T07:56:08;7.90;;;3.80;;
64688;SDS011;62504;46.070;14.492;2023-07-13T07:58:35;8.13;;;3.80;;
64688;SDS011;62504;46.070;14.492;2023-07-13T08:01:04;8.13;;;3.83;;
64688;SDS011;62504;46.070;14.492;2023-07-13T08:03:31;5.95;;;3.78;;
64688;SDS011;62504;46.070;14.492;2023-07-13T08:05:57;7.65;;;3.85;;
64688;SDS011;62504;46.070;14.492;2023-07-13T08:08:22;4.88;;;3.50;;
64688;SDS011;62504;46.070;14.492;2023-07-13T08:10:48;15.50;;;4.30;;
64688;SDS011;62504;46.070;14.492;2023-07-13T08:13:14;11.40;;;4.13;;
64688;SDS011;62504;46.070;14.492;2023-07-13T08:15:39;7.55;;;3.85;;
64688;SDS011;62504;46.070;14.492;2023-07-13T08:18:05;9.00;;;3.72;;
64688;SDS011;62504;46.070;14.492;2023-07-13T08:20:33;7.72;;;3.88;;
64688;SDS011;62504;46.070;14.492;2023-07-13T08:23:01;7.35;;;3.83;;
64688;SDS011;62504;46.070;14.492;2023-07-13T08:25:26;8.23;;;3.60;;
64688;SDS011;62504;46.070;14.492;2023-07-13T08:27:52;8.07;;;3.60;;
64688;SDS011;62504;46.070;14.492;2023-07-13T08:30:18;8.00;;;3.72;;
64688;SDS011;62504;46.070;14.492;2023-07-13T08:32:44;8.60;;;3.78;;
64688;SDS011;62504;46.070;14.492;2023-07-13T08:35:10;8.48;;;3.92;;
64688;SDS011;62504;46.070;14.492;2023-07-13T08:37:36;10.88;;;4.00;;
64688;SDS011;62504;46.070;14.492;2023-07-13T08:40:01;7.72;;;3.85;;
64688;SDS011;62504;46.070;14.492;2023-07-13T08:47:54;7.85;;;4.30;;
64688;SDS011;62504;46.070;14.492;2023-07-13T08:50:27;10.85;;;4.20;;
64688;SDS011;62504;46.070;14.492;2023-07-13T08:53:00;8.25;;;3.80;;
64688;SDS011;62504;46.070;14.492;2023-07-13T08:55:30;5.50;;;3.67;;
64688;SDS011;62504;46.070;14.492;2023-07-13T08:58:22;8.27;;;4.18;;
64688;SDS011;62504;46.070;14.492;2023-07-13T09:00:48;6.28;;;3.42;;
64688;SDS011;62504;46.070;14.492;2023-07-13T09:03:42;8.93;;;3.30;;
64688;SDS011;62504;46.070;14.492;2023-07-13T09:06:15;7.15;;;3.15;;
64688;SDS011;62504;46.070;14.492;2023-07-13T09:11:45;5.93;;;2.95;;
64688;SDS011;62504;46.070;14.492;2023-07-13T09:14:34;10.55;;;3.72;;
64688;SDS011;62504;46.070;14.492;2023-07-13T09:17:31;9.27;;;3.67;;
64688;SDS011;62504;46.070;14.492;2023-07-13T09:20:21;9.02;;;3.53;;
64688;SDS011;62504;46.070;14.492;2023-07-13T09:23:05;9.15;;;3.50;;
64688;SDS011;62504;46.070;14.492;2023-07-13T09:25:36;9.20;;;3.47;;
64688;SDS011;62504;46.070;14.492;2023-07-13T09:28:15;5.50;;;3.47;;
64688;SDS011;62504;46.070;14.492;2023-07-13T09:33:18;10.05;;;4.00;;
64688;SDS011;62504;46.070;14.492;2023-07-13T09:35:44;8.13;;;3.70;;
64688;SDS011;62504;46.070;14.492;2023-07-13T09:38:14;6.55;;;3.92;;
64688;SDS011;62504;46.070;14.492;2023-07-13T09:43:25;10.25;;;3.38;;
64688;SDS011;62504;46.070;14.492;2023-07-13T09:45:53;9.60;;;4.20;;
64688;SDS011;62504;46.070;14.492;2023-07-13T09:48:19;8.38;;;4.10;;
64688;SDS011;62504;46.070;14.492;2023-07-13T09:50:45;11.07;;;3.70;;
64688;SDS011;62504;46.070;14.492;2023-07-13T09:53:12;8.52;;;3.60;;
64688;SDS011;62504;46.070;14.492;2023-07-13T09:55:44;12.35;;;3.90;;
64688;SDS011;62504;46.070;14.492;2023-07-13T09:58:18;9.77;;;3.78;;
64688;SDS011;62504;46.070;14.492;2023-07-13T10:00:55;11.25;;;3.78;;
64688;SDS011;62504;46.070;14.492;2023-07-13T10:03:26;10.05;;;3.95;;
64688;SDS011;62504;46.070;14.492;2023-07-13T10:05:53;7.30;;;3.80;;
64688;SDS011;62504;46.070;14.492;2023-07-13T10:08:26;8.15;;;3.90;;
64688;SDS011;62504;46.070;14.492;2023-07-13T10:11:02;8.07;;;3.88;;
64688;SDS011;62504;46.070;14.492;2023-07-13T10:13:41;11.15;;;4.15;;
64688;SDS011;62504;46.070;14.492;2023-07-13T10:16:09;15.27;;;4.60;;
64688;SDS011;62504;46.070;14.492;2023-07-13T10:21:26;13.85;;;5.65;;
64688;SDS011;62504;46.070;14.492;2023-07-13T10:23:57;14.40;;;5.82;;
64688;SDS011;62504;46.070;14.492;2023-07-13T10:26:35;10.48;;;5.93;;
64688;SDS011;62504;46.070;14.492;2023-07-13T10:29:05;11.10;;;6.07;;
64688;SDS011;62504;46.070;14.492;2023-07-13T10:31:35;12.40;;;5.85;;
64688;SDS011;62504;46.070;14.492;2023-07-13T10:34:03;13.52;;;6.35;;
64688;SDS011;62504;46.070;14.492;2023-07-13T10:36:43;11.73;;;5.95;;
64688;SDS011;62504;46.070;14.492;2023-07-13T10:39:23;12.38;;;6.40;;
64688;SDS011;62504;46.070;14.492;2023-07-13T10:41:55;12.50;;;5.97;;
64688;SDS011;62504;46.070;14.492;2023-07-13T10:44:30;16.50;;;6.80;;
64688;SDS011;62504;46.070;14.492;2023-07-13T10:46:58;10.82;;;6.47;;
64688;SDS011;62504;46.070;14.492;2023-07-13T10:49:28;13.27;;;6.15;;
64688;SDS011;62504;46.070;14.492;2023-07-13T10:51:56;12.82;;;5.80;;
64688;SDS011;62504;46.070;14.492;2023-07-13T10:54:26;10.88;;;6.47;;
64688;SDS011;62504;46.070;14.492;2023-07-13T11:00:25;10.75;;;5.47;;
64688;SDS011;62504;46.070;14.492;2023-07-13T11:02:40;11.48;;;6.00;;
64688;SDS011;62504;46.070;14.492;2023-07-13T11:05:16;14.68;;;5.57;;
64688;SDS011;62504;46.070;14.492;2023-07-13T11:08:02;10.05;;;5.90;;
64688;SDS011;62504;46.070;14.492;2023-07-13T11:10:54;12.20;;;5.78;;
64688;SDS011;62504;46.070;14.492;2023-07-13T11:18:44;16.58;;;6.30;;
64688;SDS011;62504;46.070;14.492;2023-07-13T11:23:41;13.10;;;6.30;;
64688;SDS011;62504;46.070;14.492;2023-07-13T11:32:19;13.52;;;5.80;;
64688;SDS011;62504;46.070;14.492;2023-07-13T11:34:54;12.20;;;5.43;;
64688;SDS011;62504;46.070;14.492;2023-07-13T11:37:20;12.07;;;5.30;;
64688;SDS011;62504;46.070;14.492;2023-07-13T11:39:48;13.05;;;5.80;;
64688;SDS011;62504;46.070;14.492;2023-07-13T11:42:17;15.57;;;6.28;;
64688;SDS011;62504;46.070;14.492;2023-07-13T11:44:45;14.40;;;6.55;;
64688;SDS011;62504;46.070;14.492;2023-07-13T11:47:19;11.18;;;6.10;;
64688;SDS011;62504;46.070;14.492;2023-07-13T11:49:50;15.30;;;6.65;;
64688;SDS011;62504;46.070;14.492;2023-07-13T11:52:22;15.32;;;6.32;;
64688;SDS011;62504;46.070;14.492;2023-07-13T11:54:54;13.20;;;6.55;;
64688;SDS011;62504;46.070;14.492;2023-07-13T11:59:54;17.02;;;7.78;;
64688;SDS011;62504;46.070;14.492;2023-07-13T12:02:26;15.57;;;7.30;;
64688;SDS011;62504;46.070;14.492;2023-07-13T12:04:53;13.63;;;7.63;;
64688;SDS011;62504;46.070;14.492;2023-07-13T12:07:19;13.02;;;7.13;;
64688;SDS011;62504;46.070;14.492;2023-07-13T12:09:45;12.70;;;7.10;;
64688;SDS011;62504;46.070;14.492;2023-07-13T12:12:16;17.23;;;7.22;;
64688;SDS011;62504;46.070;14.492;2023-07-13T12:14:44;10.82;;;6.45;;
64688;SDS011;62504;46.070;14.492;2023-07-13T12:17:17;10.95;;;6.50;;
64688;SDS011;62504;46.070;14.492;2023-07-13T12:19:45;11.05;;;6.05;;
64688;SDS011;62504;46.070;14.492;2023-07-13T12:22:12;10.45;;;5.95;;
64688;SDS011;62504;46.070;14.492;2023-07-13T12:24:39;11.68;;;6.68;;
64688;SDS011;62504;46.070;14.492;2023-07-13T12:27:06;14.23;;;6.55;;
64688;SDS011;62504;46.070;14.492;2023-07-13T12:29:48;14.82;;;6.60;;
64688;SDS011;62504;46.070;14.492;2023-07-13T12:32:23;13.40;;;6.40;;
64688;SDS011;62504;46.070;14.492;2023-07-13T12:34:51;17.52;;;7.53;;
64688;SDS011;62504;46.070;14.492;2023-07-13T12:37:21;18.20;;;7.20;;
64688;SDS011;62504;46.070;14.492;2023-07-13T12:39:49;15.40;;;6.63;;
64688;SDS011;62504;46.070;14.492;2023-07-13T12:47:46;10.60;;;6.68;;
64688;SDS011;62504;46.070;14.492;2023-07-13T12:50:14;15.20;;;7.65;;
64688;SDS011;62504;46.070;14.492;2023-07-13T12:52:56;12.52;;;7.40;;
64688;SDS011;62504;46.070;14.492;2023-07-13T12:55:28;13.27;;;6.80;;
64688;SDS011;62504;46.070;14.492;2023-07-13T12:57:58;13.52;;;7.22;;
64688;SDS011;62504;46.070;14.492;2023-07-13T13:03:03;16.80;;;8.40;;
64688;SDS011;62504;46.070;14.492;2023-07-13T13:05:36;14.70;;;8.20;;
64688;SDS011;62504;46.070;14.492;2023-07-13T13:08:03;30.20;;;9.07;;
64688;SDS011;62504;46.070;14.492;2023-07-13T13:10:28;22.70;;;9.30;;
64688;SDS011;62504;46.070;14.492;2023-07-13T13:12:54;18.83;;;10.25;;
64688;SDS011;62504;46.070;14.492;2023-07-13T13:15:20;19.23;;;8.65;;
64688;SDS011;62504;46.070;14.492;2023-07-13T13:17:47;16.13;;;9.02;;
64688;SDS011;62504;46.070;14.492;2023-07-13T13:20:17;16.98;;;8.73;;
64688;SDS011;62504;46.070;14.492;2023-07-13T13:22:44;13.45;;;8.25;;
64688;SDS011;62504;46.070;14.492;2023-07-13T13:25:10;14.32;;;7.93;;
64688;SDS011;62504;46.070;14.492;2023-07-13T13:27:37;13.82;;;9.32;;
64688;SDS011;62504;46.070;14.492;2023-07-13T13:30:08;19.55;;;9.93;;
64688;SDS011;62504;46.070;14.492;2023-07-13T13:32:35;15.48;;;9.00;;
64688;SDS011;62504;46.070;14.492;2023-07-13T13:35:01;15.57;;;9.15;;
64688;SDS011;62504;46.070;14.492;2023-07-13T13:37:26;14.82;;;9.05;;
64688;SDS011;62504;46.070;14.492;2023-07-13T13:39:52;14.90;;;9.60;;
64688;SDS011;62504;46.070;14.492;2023-07-13T13:42:18;16.38;;;11.20;;
64688;SDS011;62504;46.070;14.492;2023-07-13T13:44:46;32.80;;;21.23;;
64688;SDS011;62504;46.070;14.492;2023-07-13T13:47:21;20.30;;;10.32;;
64688;SDS011;62504;46.070;14.492;2023-07-13T13:49:56;12.52;;;8.75;;
64688;SDS011;62504;46.070;14.492;2023-07-13T13:52:22;11.23;;;8.63;;
64688;SDS011;62504;46.070;14.492;2023-07-13T13:54:48;14.13;;;9.18;;
64688;SDS011;62504;46.070;14.492;2023-07-13T13:57:14;13.77;;;9.05;;
64688;SDS011;62504;46.070;14.492;2023-07-13T13:59:39;17.95;;;9.48;;
64688;SDS011;62504;46.070;14.492;2023-07-13T14:02:25;13.05;;;9.13;;
64688;SDS011;62504;46.070;14.492;2023-07-13T14:04:57;12.85;;;9.65;;
64688;SDS011;62504;46.070;14.492;2023-07-13T14:07:26;15.50;;;9.77;;
64688;SDS011;62504;46.070;14.492;2023-07-13T14:09:55;16.45;;;9.20;;
64688;SDS011;62504;46.070;14.492;2023-07-13T14:12:22;13.27;;;8.95;;
64688;SDS011;62504;46.070;14.492;2023-07-13T14:14:51;17.55;;;9.40;;
64688;SDS011;62504;46.070;14.492;2023-07-13T14:17:20;13.77;;;8.98;;
64688;SDS011;62504;46.070;14.492;2023-07-13T14:19:49;13.07;;;8.73;;
64688;SDS011;62504;46.070;14.492;2023-07-13T14:22:17;12.70;;;8.10;;
64688;SDS011;62504;46.070;14.492;2023-07-13T14:24:43;14.50;;;9.30;;
64688;SDS011;62504;46.070;14.492;2023-07-13T14:27:12;13.65;;;8.00;;
64688;SDS011;62504;46.070;14.492;2023-07-13T14:29:38;10.63;;;8.20;;
64688;SDS011;62504;46.070;14.492;2023-07-13T14:32:05;11.38;;;7.78;;
64688;SDS011;62504;46.070;14.492;2023-07-13T14:34:34;9.40;;;7.50;;
64688;SDS011;62504;46.070;14.492;2023-07-13T14:37:00;13.82;;;9.40;;
64688;SDS011;62504;46.070;14.492;2023-07-13T14:39:25;12.50;;;8.13;;
64688;SDS011;62504;46.070;14.492;2023-07-13T14:41:52;15.27;;;8.77;;
64688;SDS011;62504;46.070;14.492;2023-07-13T14:44:29;12.85;;;8.68;;
64688;SDS011;62504;46.070;14.492;2023-07-13T14:46:57;15.27;;;7.95;;
64688;SDS011;62504;46.070;14.492;2023-07-13T14:49:36;14.05;;;7.35;;
64688;SDS011;62504;46.070;14.492;2023-07-13T14:52:14;11.95;;;7.47;;
64688;SDS011;62504;46.070;14.492;2023-07-13T14:54:45;12.32;;;7.97;;
64688;SDS011;62504;46.070;14.492;2023-07-13T14:57:11;12.95;;;7.68;;
64688;SDS011;62504;46.070;14.492;2023-07-13T14:59:38;14.38;;;7.55;;
64688;SDS011;62504;46.070;14.492;2023-07-13T15:02:13;11.20;;;7.88;;
64688;SDS011;62504;46.070;14.492;2023-07-13T15:04:52;12.38;;;7.95;;
64688;SDS011;62504;46.070;14.492;2023-07-13T15:07:19;13.43;;;7.65;;
64688;SDS011;62504;46.070;14.492;2023-07-13T15:09:46;10.93;;;7.28;;
64688;SDS011;62504;46.070;14.492;2023-07-13T15:12:12;13.23;;;8.20;;
64688;SDS011;62504;46.070;14.492;2023-07-13T15:14:39;15.18;;;8.40;;
64688;SDS011;62504;46.070;14.492;2023-07-13T15:17:04;14.60;;;8.57;;
64688;SDS011;62504;46.070;14.492;2023-07-13T15:19:40;12.95;;;8.52;;
64688;SDS011;62504;46.070;14.492;2023-07-13T15:22:07;12.30;;;8.18;;
64688;SDS011;62504;46.070;14.492;2023-07-13T15:24:34;17.45;;;8.70;;